createdAt,value
2022-08-22T00:00:18.574Z,14.30
2022-08-22T00:02:53.685Z,13.50
2022-08-22T00:03:07.734Z,13.00
2022-08-22T00:03:23.959Z,21.40
2022-08-22T00:06:11.876Z,16.00
2022-08-22T00:09:05.919Z,13.60
2022-08-22T00:12:16.612Z,14.40
2022-08-22T00:15:07.185Z,13.50
2022-08-22T00:18:19.610Z,14.40
2022-08-22T00:21:27.146Z,13.20
2022-08-22T00:24:41.492Z,14.70
2022-08-22T00:30:07.651Z,11.60
2022-08-22T00:32:45.501Z,13.30
2022-08-22T00:35:26.297Z,16.10
2022-08-22T00:38:22.633Z,14.40
2022-08-22T00:41:25.162Z,13.40
2022-08-22T00:44:35.791Z,12.70
2022-08-22T00:47:35.804Z,18.30
2022-08-22T00:50:18.500Z,12.40
2022-08-22T00:53:22.154Z,14.10
2022-08-22T00:56:35.029Z,12.50
2022-08-22T00:59:53.108Z,11.00
2022-08-22T01:02:59.450Z,14.90
2022-08-22T01:06:01.992Z,12.50
2022-08-22T01:08:50.172Z,12.20
2022-08-22T01:11:50.383Z,12.40
2022-08-22T01:14:49.399Z,13.90
2022-08-22T01:17:55.633Z,17.60
2022-08-22T01:20:57.360Z,12.00
2022-08-22T01:24:28.299Z,14.20
2022-08-22T01:27:30.163Z,12.40
2022-08-22T01:30:40.685Z,12.20
2022-08-22T01:33:29.654Z,12.60
2022-08-22T01:36:52.355Z,16.00
2022-08-22T01:39:40.506Z,13.00
2022-08-22T01:42:45.922Z,17.00
2022-08-22T01:45:47.113Z,12.80
2022-08-22T01:48:53.377Z,13.80
2022-08-22T01:51:43.723Z,18.60
2022-08-22T01:54:33.813Z,12.70
2022-08-22T01:57:15.094Z,12.80
2022-08-22T02:00:01.404Z,11.70
2022-08-22T02:02:44.786Z,14.60
2022-08-22T02:05:46.935Z,14.50
2022-08-22T02:08:59.150Z,12.50
2022-08-22T02:12:13.839Z,14.10
2022-08-22T02:15:40.629Z,15.60
2022-08-22T02:18:12.913Z,14.60
2022-08-22T02:21:16.710Z,12.20
2022-08-22T02:24:14.576Z,13.00
2022-08-22T02:27:32.023Z,15.60
2022-08-22T02:30:51.518Z,14.70
2022-08-22T02:33:38.599Z,16.10
2022-08-22T02:36:54.969Z,14.20
2022-08-22T02:39:45.455Z,14.10
2022-08-22T02:42:26.169Z,13.60
2022-08-22T02:45:22.025Z,12.50
2022-08-22T02:48:19.205Z,10.90
2022-08-22T02:51:08.252Z,10.50
2022-08-22T02:54:09.052Z,11.80
2022-08-22T02:57:26.467Z,13.10
2022-08-22T03:00:32.351Z,14.30
2022-08-22T03:03:22.811Z,15.30
2022-08-22T03:06:09.067Z,15.00
2022-08-22T03:09:19.039Z,15.50
2022-08-22T03:12:00.020Z,13.20
2022-08-22T03:14:59.079Z,14.90
2022-08-22T03:17:47.189Z,16.40
2022-08-22T03:20:38.623Z,13.10
2022-08-22T03:23:25.386Z,14.70
2022-08-22T03:26:19.664Z,11.90
2022-08-22T03:29:00.172Z,13.80
2022-08-22T03:31:32.059Z,11.60
2022-08-22T03:34:29.344Z,12.70
2022-08-22T03:37:19.050Z,13.50
2022-08-22T03:40:06.742Z,13.20
2022-08-22T03:43:21.333Z,13.60
2022-08-22T03:46:20.402Z,15.40
2022-08-22T03:49:32.251Z,17.70
2022-08-22T03:53:02.646Z,15.40
2022-08-22T03:56:11.842Z,13.80
2022-08-22T03:59:35.464Z,15.60
2022-08-22T04:02:48.347Z,22.50
2022-08-22T04:05:44.748Z,16.40
2022-08-22T04:09:14.823Z,18.10
2022-08-22T04:12:15.671Z,16.80
2022-08-22T04:15:48.721Z,18.20
2022-08-22T04:21:42.786Z,18.20
2022-08-22T04:24:23.981Z,22.70
2022-08-22T04:27:26.405Z,20.40
2022-08-22T04:30:35.788Z,22.10
2022-08-22T04:33:32.225Z,21.20
2022-08-22T04:36:13.176Z,19.50
2022-08-22T04:39:23.051Z,17.10
2022-08-22T04:42:35.354Z,15.20
2022-08-22T04:45:10.712Z,15.90
2022-08-22T04:48:27.870Z,14.40
2022-08-22T04:51:08.470Z,13.80
2022-08-22T04:53:49.497Z,15.10
2022-08-22T04:57:00.113Z,15.60
2022-08-22T04:59:30.756Z,14.30
2022-08-22T05:02:08.267Z,15.20
2022-08-22T05:04:49.720Z,16.90
2022-08-22T05:07:36.225Z,18.80
2022-08-22T05:10:34.194Z,20.50
2022-08-22T05:13:52.210Z,14.60
2022-08-22T05:16:52.188Z,24.70
2022-08-22T05:19:32.056Z,18.60
2022-08-22T05:22:06.870Z,22.50
2022-08-22T05:25:17.647Z,22.20
2022-08-22T05:28:34.855Z,18.20
2022-08-22T05:31:15.996Z,22.80
2022-08-22T05:34:08.208Z,22.50
2022-08-22T05:37:13.212Z,25.70
2022-08-22T05:39:47.879Z,25.80
2022-08-22T05:42:52.060Z,22.60
2022-08-22T05:45:26.379Z,21.30
2022-08-22T05:48:23.122Z,19.20
2022-08-22T05:51:10.771Z,18.10
2022-08-22T05:53:48.083Z,16.50
2022-08-22T05:56:37.883Z,22.30
2022-08-22T05:59:34.558Z,20.60
2022-08-22T06:02:48.279Z,20.30
2022-08-22T06:05:27.541Z,20.60
2022-08-22T06:08:33.564Z,14.70
2022-08-22T06:11:32.704Z,20.20
2022-08-22T06:14:28.011Z,19.30
2022-08-22T06:17:36.013Z,18.80
2022-08-22T06:20:09.826Z,15.50
2022-08-22T06:23:10.765Z,20.20
2022-08-22T06:25:44.241Z,20.60
2022-08-22T06:28:24.992Z,14.20
2022-08-22T06:31:04.246Z,15.80
2022-08-22T06:34:06.403Z,15.20
2022-08-22T06:36:49.178Z,17.30
2022-08-22T06:39:31.526Z,21.10
2022-08-22T06:42:27.022Z,17.40
2022-08-22T06:45:35.223Z,21.00
2022-08-22T06:48:10.913Z,18.30
2022-08-22T06:50:55.700Z,13.30
2022-08-22T06:53:50.664Z,17.80
2022-08-22T06:56:45.300Z,16.10
2022-08-22T06:59:47.801Z,16.60
2022-08-22T07:02:50.966Z,13.80
2022-08-22T07:05:43.752Z,17.70
2022-08-22T07:08:23.861Z,11.50
2022-08-22T07:11:25.939Z,14.90
2022-08-22T07:14:19.445Z,17.40
2022-08-22T07:17:01.453Z,12.90
2022-08-22T07:19:36.784Z,14.00
2022-08-22T07:22:30.477Z,13.80
2022-08-22T07:25:16.360Z,13.30
2022-08-22T07:28:17.860Z,15.30
2022-08-22T07:31:37.010Z,17.80
2022-08-22T07:34:47.858Z,14.30
2022-08-22T07:37:24.742Z,12.10
2022-08-22T07:40:35.759Z,14.30
2022-08-22T07:43:25.220Z,17.10
2022-08-22T07:46:01.964Z,14.80
2022-08-22T07:49:05.930Z,14.80
2022-08-22T07:51:45.553Z,16.00
2022-08-22T07:54:27.526Z,14.30
2022-08-22T07:57:13.206Z,14.50
2022-08-22T07:59:55.003Z,13.60
2022-08-22T08:02:25.052Z,12.50
2022-08-22T08:04:56.677Z,18.30
2022-08-22T08:07:31.913Z,14.30
2022-08-22T08:10:12.386Z,17.10
2022-08-22T08:12:54.169Z,18.10
2022-08-22T08:15:37.442Z,13.60
2022-08-22T08:18:13.291Z,14.90
2022-08-22T08:20:42.503Z,16.70
2022-08-22T08:23:19.383Z,16.90
2022-08-22T08:26:18.973Z,13.70
2022-08-22T08:28:55.717Z,11.10
2022-08-22T08:31:44.904Z,13.80
2022-08-22T08:34:26.808Z,15.60
2022-08-22T08:37:05.451Z,12.30
2022-08-22T08:39:50.008Z,10.30
2022-08-22T08:42:55.573Z,20.50
2022-08-22T08:45:43.401Z,14.30
2022-08-22T08:49:06.888Z,16.00
2022-08-22T08:52:08.011Z,17.40
2022-08-22T08:55:32.473Z,21.40
2022-08-22T08:58:19.356Z,17.50
2022-08-22T09:01:16.345Z,16.70
2022-08-22T09:04:18.157Z,17.20
2022-08-22T09:07:24.871Z,32.40
2022-08-22T09:10:29.499Z,29.00
2022-08-22T09:13:24.564Z,17.10
2022-08-22T09:16:19.246Z,27.00
2022-08-22T09:19:20.121Z,21.10
2022-08-22T09:22:14.474Z,22.90
2022-08-22T09:25:44.176Z,28.30
2022-08-22T09:28:28.234Z,27.90
2022-08-22T09:31:02.137Z,32.00
2022-08-22T09:33:55.526Z,34.30
2022-08-22T09:36:57.776Z,34.50
2022-08-22T09:39:30.761Z,20.90
2022-08-22T09:42:14.908Z,34.50
2022-08-22T09:45:11.190Z,34.70
2022-08-22T09:48:00.305Z,27.60
2022-08-22T09:51:01.641Z,34.60
2022-08-22T09:53:45.326Z,23.20
2022-08-22T09:56:36.005Z,32.10
2022-08-22T09:59:13.419Z,23.80
2022-08-22T10:02:03.187Z,31.50
2022-08-22T10:04:45.433Z,33.70
2022-08-22T10:08:26.366Z,23.30
2022-08-22T10:11:32.186Z,26.70
2022-08-22T10:14:33.419Z,32.30
2022-08-22T10:17:31.891Z,32.60
2022-08-22T10:20:36.510Z,24.50
2022-08-22T10:23:31.698Z,37.60
2022-08-22T10:26:22.833Z,29.00
2022-08-22T10:29:04.876Z,28.60
2022-08-22T10:31:59.782Z,22.90
2022-08-22T10:34:35.979Z,35.70
2022-08-22T10:38:00.297Z,23.30
2022-08-22T10:40:49.623Z,25.50
2022-08-22T10:43:41.869Z,23.20
2022-08-22T10:46:31.468Z,27.40
2022-08-22T10:49:08.276Z,25.50
2022-08-22T10:51:56.894Z,16.50
2022-08-22T10:54:56.053Z,24.30
2022-08-22T10:57:31.922Z,21.80
2022-08-22T11:00:37.215Z,17.50
2022-08-22T11:03:52.656Z,20.80
2022-08-22T11:07:15.118Z,18.80
2022-08-22T11:09:43.490Z,22.20
2022-08-22T11:12:35.076Z,18.20
2022-08-22T11:15:58.353Z,19.10
2022-08-22T11:21:34.595Z,23.20
2022-08-22T11:24:35.549Z,21.80
2022-08-22T11:30:10.275Z,11.70
2022-08-22T11:33:09.744Z,21.50
2022-08-22T11:35:44.059Z,12.10
2022-08-22T11:39:10.016Z,13.50
2022-08-22T11:42:11.773Z,16.10
2022-08-22T11:44:50.387Z,19.00
2022-08-22T11:47:26.771Z,16.80
2022-08-22T11:49:57.007Z,16.60
2022-08-22T11:52:54.198Z,12.60
2022-08-22T11:55:48.187Z,21.70
2022-08-22T11:58:54.197Z,15.00
2022-08-22T12:01:56.286Z,21.30
2022-08-22T12:04:57.102Z,12.50
2022-08-22T12:07:32.729Z,15.90
2022-08-22T12:10:17.513Z,17.20
2022-08-22T12:12:44.479Z,15.30
2022-08-22T12:15:18.518Z,12.40
2022-08-22T12:18:30.631Z,15.30
2022-08-22T12:21:21.719Z,16.00
2022-08-22T12:24:20.842Z,20.70
2022-08-22T12:27:06.475Z,19.40
2022-08-22T12:30:01.584Z,22.00
2022-08-22T12:32:49.722Z,20.50
2022-08-22T12:36:04.918Z,18.50
2022-08-22T12:38:50.246Z,16.20
2022-08-22T12:41:48.279Z,18.20
2022-08-22T12:44:30.224Z,12.30
2022-08-22T12:47:09.631Z,21.50
2022-08-22T12:50:18.844Z,19.70
2022-08-22T12:53:24.318Z,17.70
2022-08-22T12:56:26.842Z,26.30
2022-08-22T12:59:19.050Z,18.00
2022-08-22T13:01:51.663Z,14.90
2022-08-22T13:04:33.116Z,15.40
2022-08-22T13:07:19.771Z,14.50
2022-08-22T13:10:26.122Z,20.20
2022-08-22T13:12:57.183Z,29.40
2022-08-22T13:15:35.985Z,21.80
2022-08-22T13:18:29.534Z,17.30
2022-08-22T13:21:02.339Z,17.70
2022-08-22T13:23:39.760Z,19.40
2022-08-22T13:26:31.796Z,21.30
2022-08-22T13:29:26.746Z,22.60
2022-08-22T13:32:01.180Z,13.30
2022-08-22T13:34:50.652Z,21.40
2022-08-22T13:37:35.402Z,21.10
2022-08-22T13:40:09.718Z,17.80
2022-08-22T13:42:47.795Z,21.60
2022-08-22T13:45:26.384Z,18.60
2022-08-22T13:48:11.599Z,19.80
2022-08-22T13:51:12.460Z,22.80
2022-08-22T13:53:50.002Z,23.40
2022-08-22T13:56:56.940Z,24.90
2022-08-22T13:59:50.100Z,19.40
2022-08-22T14:03:05.729Z,16.30
2022-08-22T14:05:56.030Z,23.10
2022-08-22T14:08:36.214Z,25.30
2022-08-22T14:11:27.203Z,22.40
2022-08-22T14:14:03.163Z,24.40
2022-08-22T14:16:55.949Z,20.30
2022-08-22T14:19:53.159Z,17.40
2022-08-22T14:22:32.099Z,26.30
2022-08-22T14:25:26.744Z,21.50
2022-08-22T14:28:10.968Z,25.50
2022-08-22T14:31:00.867Z,24.50
2022-08-22T14:33:46.118Z,27.60
2022-08-22T14:36:22.812Z,23.60
2022-08-22T14:39:30.547Z,23.50
2022-08-22T14:42:22.993Z,27.90
2022-08-22T14:45:25.469Z,21.90
2022-08-22T14:48:30.142Z,37.90
2022-08-22T14:51:17.035Z,21.00
2022-08-22T14:53:44.373Z,18.90
2022-08-22T14:56:18.181Z,20.10
2022-08-22T14:59:08.781Z,22.70
2022-08-22T15:02:05.555Z,27.60
2022-08-22T15:04:44.934Z,29.30
2022-08-22T15:07:23.312Z,29.50
2022-08-22T15:10:22.271Z,32.90
2022-08-22T15:12:55.452Z,26.30
2022-08-22T15:15:49.816Z,28.20
2022-08-22T15:18:29.905Z,26.50
2022-08-22T15:21:08.577Z,25.60
2022-08-22T15:23:45.375Z,23.20
2022-08-22T15:26:36.104Z,23.70
2022-08-22T15:29:31.220Z,27.90
2022-08-22T15:32:01.782Z,33.20
2022-08-22T15:34:43.842Z,22.30
2022-08-22T15:37:20.169Z,23.60
2022-08-22T15:40:19.832Z,26.10
2022-08-22T15:42:54.034Z,23.80
2022-08-22T15:45:36.770Z,26.10
2022-08-22T15:48:24.700Z,31.50
2022-08-22T15:51:09.737Z,26.80
2022-08-22T15:53:43.114Z,27.50
2022-08-22T15:56:19.870Z,25.00
2022-08-22T15:59:23.178Z,27.10
2022-08-22T16:01:58.466Z,25.70
2022-08-22T16:04:46.907Z,23.80
2022-08-22T16:07:45.499Z,23.40
2022-08-22T16:10:21.679Z,29.70
2022-08-22T16:13:16.289Z,23.50
2022-08-22T16:15:54.337Z,20.60
2022-08-22T16:18:50.713Z,23.30
2022-08-22T16:21:20.855Z,16.80
2022-08-22T16:23:51.133Z,17.90
2022-08-22T16:26:43.716Z,20.90
2022-08-22T16:29:14.693Z,18.20
2022-08-22T16:31:44.589Z,16.00
2022-08-22T16:34:43.483Z,14.60
2022-08-22T16:37:24.376Z,13.50
2022-08-22T16:40:00.517Z,17.30
2022-08-22T16:42:42.415Z,21.00
2022-08-22T16:45:23.266Z,16.90
2022-08-22T16:48:02.288Z,16.70
2022-08-22T16:50:38.048Z,22.10
2022-08-22T16:53:18.523Z,20.40
2022-08-22T16:56:32.214Z,23.90
2022-08-22T16:59:22.472Z,18.20
2022-08-22T17:02:00.228Z,20.00
2022-08-22T17:04:50.145Z,15.00
2022-08-22T17:07:30.349Z,17.80
2022-08-22T17:10:14.447Z,22.30
2022-08-22T17:13:02.900Z,19.00
2022-08-22T17:16:13.522Z,19.70
2022-08-22T17:19:25.656Z,17.70
2022-08-22T17:22:19.423Z,18.20
2022-08-22T17:25:16.575Z,16.70
2022-08-22T17:28:03.688Z,20.80
2022-08-22T17:31:10.988Z,16.30
2022-08-22T17:33:41.081Z,21.30
2022-08-22T17:36:45.399Z,16.80
2022-08-22T17:39:55.634Z,15.40
2022-08-22T17:43:48.417Z,18.00
2022-08-22T17:46:37.313Z,24.20
2022-08-22T17:49:25.647Z,20.40
2022-08-22T17:52:19.935Z,18.70
2022-08-22T17:55:26.226Z,19.40
2022-08-22T17:58:05.286Z,18.10
2022-08-22T18:01:04.244Z,12.80
2022-08-22T18:03:46.834Z,16.00
2022-08-22T18:06:30.012Z,14.50
2022-08-22T18:09:14.378Z,10.60
2022-08-22T18:11:52.608Z,11.00
2022-08-22T18:14:38.440Z,16.30
2022-08-22T18:17:39.826Z,14.90
2022-08-22T18:20:22.429Z,14.90
2022-08-22T18:22:58.128Z,11.90
2022-08-22T18:25:54.053Z,15.70
2022-08-22T18:28:48.730Z,17.00
2022-08-22T18:31:46.513Z,17.00
2022-08-22T18:34:56.869Z,18.30
2022-08-22T18:37:30.899Z,16.50
2022-08-22T18:40:18.034Z,14.80
2022-08-22T18:43:01.062Z,15.70
2022-08-22T18:45:46.717Z,33.80
2022-08-22T18:48:49.506Z,22.60
2022-08-22T18:51:35.476Z,15.00
2022-08-22T18:54:08.458Z,15.90
2022-08-22T18:57:06.449Z,15.80
2022-08-22T19:00:16.752Z,13.30
2022-08-22T19:03:00.619Z,12.50
2022-08-22T19:06:05.742Z,13.10
2022-08-22T19:09:09.191Z,11.60
2022-08-22T19:12:30.728Z,11.50
2022-08-22T19:15:45.966Z,14.00
2022-08-22T19:18:35.716Z,12.70
2022-08-22T19:21:50.146Z,14.80
2022-08-22T19:24:30.769Z,7.90
2022-08-22T19:27:25.227Z,15.80
2022-08-22T19:30:23.536Z,13.10
2022-08-22T19:33:06.834Z,13.10
2022-08-22T19:35:49.109Z,11.10
2022-08-22T19:38:51.351Z,7.50
2022-08-22T19:41:56.530Z,9.80
2022-08-22T19:44:32.095Z,14.00
2022-08-22T19:47:05.377Z,10.90
2022-08-22T19:49:45.021Z,10.40
2022-08-22T19:52:46.247Z,12.80
2022-08-22T19:55:28.331Z,11.30
2022-08-22T19:58:39.770Z,7.10
2022-08-22T20:01:25.664Z,13.30
2022-08-22T20:04:34.540Z,18.20
2022-08-22T20:07:17.110Z,10.80
2022-08-22T20:09:51.937Z,12.20
2022-08-22T20:12:51.196Z,13.10
2022-08-22T20:15:25.325Z,13.40
2022-08-22T20:20:59.308Z,15.00
2022-08-22T20:23:31.635Z,12.30
2022-08-22T20:25:59.835Z,18.60
2022-08-22T20:28:44.566Z,7.60
2022-08-22T20:31:23.559Z,15.40
2022-08-22T20:34:14.308Z,13.10
2022-08-22T20:36:55.985Z,11.30
2022-08-22T20:39:58.508Z,11.40
2022-08-22T20:42:31.692Z,15.10
2022-08-22T20:45:04.446Z,15.50
2022-08-22T20:47:41.338Z,10.40
2022-08-22T20:50:11.602Z,8.70
2022-08-22T20:52:54.254Z,16.10
2022-08-22T20:55:31.228Z,13.00
2022-08-22T20:58:05.525Z,9.70
2022-08-22T21:00:49.142Z,12.30
2022-08-22T21:03:25.331Z,9.90
2022-08-22T21:05:52.597Z,12.70
2022-08-22T21:08:25.047Z,12.90
2022-08-22T21:11:19.538Z,10.80
2022-08-22T21:13:48.093Z,10.50
2022-08-22T21:16:18.999Z,11.40
2022-08-22T21:18:50.111Z,12.30
2022-08-22T21:21:17.955Z,16.00
2022-08-22T21:23:49.636Z,9.20
2022-08-22T21:26:27.599Z,15.50
2022-08-22T21:29:12.980Z,17.30
2022-08-22T21:32:07.450Z,13.80
2022-08-22T21:34:47.671Z,11.00
2022-08-22T21:37:16.980Z,16.80
2022-08-22T21:39:52.215Z,19.60
2022-08-22T21:42:30.716Z,21.30
2022-08-22T21:45:34.320Z,19.20
2022-08-22T21:48:01.644Z,15.80
2022-08-22T21:50:38.542Z,18.50
2022-08-22T21:53:24.541Z,20.70
2022-08-22T21:56:14.722Z,21.10
2022-08-22T21:58:42.790Z,27.70
2022-08-22T22:01:32.199Z,35.20
2022-08-22T22:03:59.637Z,39.80
2022-08-22T22:06:27.403Z,35.50
2022-08-22T22:08:54.812Z,32.10
2022-08-22T22:11:22.094Z,30.80
2022-08-22T22:13:49.506Z,20.90
2022-08-22T22:16:24.270Z,35.40
2022-08-22T22:18:51.554Z,22.10
2022-08-22T22:21:18.774Z,18.00
2022-08-22T22:23:46.291Z,14.50
2022-08-22T22:26:13.915Z,16.60
2022-08-22T22:28:47.018Z,24.30
2022-08-22T22:31:17.763Z,18.70
2022-08-22T22:33:45.312Z,17.40
2022-08-22T22:36:19.612Z,18.20
2022-08-22T22:38:48.607Z,21.60
2022-08-22T22:41:22.925Z,26.00
2022-08-22T22:43:50.662Z,27.50
2022-08-22T22:46:18.022Z,29.30
2022-08-22T22:48:45.369Z,23.00
2022-08-22T22:51:13.530Z,24.20
2022-08-22T22:53:43.046Z,22.60
2022-08-22T22:56:16.580Z,22.90
2022-08-22T22:58:44.832Z,26.10
2022-08-22T23:01:23.483Z,24.30
2022-08-22T23:04:05.654Z,35.60
2022-08-22T23:06:34.158Z,35.70
2022-08-22T23:09:01.365Z,36.00
2022-08-22T23:11:30.415Z,40.80
2022-08-22T23:13:58.144Z,37.60
2022-08-22T23:16:28.202Z,36.90
2022-08-22T23:18:55.940Z,37.30
2022-08-22T23:21:28.567Z,40.40
2022-08-22T23:24:00.163Z,39.50
2022-08-22T23:26:29.039Z,41.20
2022-08-22T23:28:57.545Z,42.70
2022-08-22T23:31:43.577Z,45.80
2022-08-22T23:34:17.061Z,42.80
2022-08-22T23:36:47.490Z,46.20
2022-08-22T23:39:16.266Z,41.80
2022-08-22T23:41:45.225Z,39.40
2022-08-22T23:44:17.268Z,42.60
2022-08-22T23:46:45.188Z,42.00
2022-08-22T23:49:13.843Z,39.60
2022-08-22T23:51:42.526Z,44.10
2022-08-22T23:54:09.714Z,39.50
2022-08-22T23:56:48.951Z,43.50
2022-08-22T23:59:28.058Z,46.90
